createdAt,value
2022-12-04T00:01:28.610Z,322.40
2022-12-04T00:04:30.390Z,315.42
2022-12-04T00:07:32.172Z,314.85
2022-12-04T00:10:34.093Z,327.08
2022-12-04T00:13:36.888Z,318.25
2022-12-04T00:16:38.618Z,316.30
2022-12-04T00:19:40.653Z,323.40
2022-12-04T00:22:42.367Z,322.98
2022-12-04T00:25:48.898Z,323.27
2022-12-04T00:28:50.952Z,332.13
2022-12-04T00:31:52.835Z,325.70
2022-12-04T00:34:54.596Z,327.85
2022-12-04T00:37:56.337Z,329.70
2022-12-04T00:40:58.141Z,330.63
2022-12-04T00:44:00.900Z,345.02
2022-12-04T00:47:02.697Z,338.52
2022-12-04T00:50:05.733Z,336.38
2022-12-04T00:53:07.827Z,325.52
2022-12-04T00:56:15.029Z,338.52
2022-12-04T00:59:16.718Z,321.20
2022-12-04T01:02:18.408Z,329.50
2022-12-04T01:05:20.048Z,330.85
2022-12-04T01:08:21.769Z,329.23
2022-12-04T01:11:25.604Z,328.05
2022-12-04T01:14:27.374Z,327.90
2022-12-04T01:17:29.120Z,347.83
2022-12-04T01:20:33.203Z,323.75
2022-12-04T01:23:34.942Z,319.85
2022-12-04T01:26:36.695Z,324.92
2022-12-04T01:29:38.359Z,322.65
2022-12-04T01:32:40.043Z,320.73
2022-12-04T01:35:41.684Z,325.52
2022-12-04T01:38:44.179Z,321.13
2022-12-04T01:41:45.799Z,318.10
2022-12-04T01:45:24.897Z,327.52
2022-12-04T01:48:35.702Z,329.17
2022-12-04T01:51:40.863Z,329.08
2022-12-04T01:54:47.073Z,339.52
2022-12-04T01:57:48.680Z,333.88
2022-12-04T02:00:58.178Z,333.40
2022-12-04T02:04:02.176Z,321.70
2022-12-04T02:07:04.152Z,336.45
2022-12-04T02:10:08.857Z,330.88
2022-12-04T02:13:16.880Z,331.42
2022-12-04T02:16:24.605Z,334.55
2022-12-04T02:19:38.024Z,345.52
2022-12-04T02:23:03.479Z,344.58
2022-12-04T02:26:32.727Z,343.95
2022-12-04T02:30:08.976Z,341.27
2022-12-04T02:33:25.849Z,343.83
2022-12-04T02:36:36.355Z,333.13
2022-12-04T02:39:54.573Z,331.50
2022-12-04T02:43:17.483Z,345.88
2022-12-04T02:46:28.639Z,357.25
2022-12-04T02:49:40.374Z,349.33
2022-12-04T02:53:08.085Z,351.67
2022-12-04T02:56:13.158Z,278.60
2022-12-04T02:59:22.899Z,344.00
2022-12-04T03:02:39.441Z,358.40
2022-12-04T03:05:53.565Z,373.23
2022-12-04T03:09:02.546Z,375.40
2022-12-04T03:12:09.125Z,375.52
2022-12-04T03:15:16.012Z,381.35
2022-12-04T03:18:27.001Z,388.77
2022-12-04T03:21:35.193Z,385.38
2022-12-04T03:24:42.242Z,372.20
2022-12-04T03:27:54.555Z,379.92
2022-12-04T03:31:02.912Z,380.25
2022-12-04T03:34:07.835Z,377.48
2022-12-04T03:37:14.691Z,367.98
2022-12-04T03:40:29.260Z,378.50
2022-12-04T03:44:15.528Z,382.50
2022-12-04T03:47:20.831Z,387.55
2022-12-04T03:51:05.144Z,390.50
2022-12-04T03:54:20.413Z,381.20
2022-12-04T03:57:28.187Z,378.73
2022-12-04T04:00:32.861Z,377.20
2022-12-04T04:03:38.444Z,379.63
2022-12-04T04:06:49.202Z,382.88
2022-12-04T04:09:56.816Z,385.40
2022-12-04T04:13:21.086Z,383.80
2022-12-04T04:16:45.468Z,380.90
2022-12-04T04:20:12.624Z,394.60
2022-12-04T04:23:36.375Z,399.17
2022-12-04T04:29:46.811Z,388.27
2022-12-04T04:33:11.357Z,386.58
2022-12-04T04:36:29.008Z,409.58
2022-12-04T04:39:39.880Z,410.02
2022-12-04T04:42:50.622Z,402.35
2022-12-04T04:46:04.987Z,398.90
2022-12-04T04:49:10.345Z,398.98
2022-12-04T04:52:12.070Z,396.80
2022-12-04T04:55:15.968Z,396.30
2022-12-04T04:58:20.134Z,403.35
2022-12-04T05:01:26.584Z,414.40
2022-12-04T05:04:28.375Z,405.27
2022-12-04T05:07:30.176Z,422.65
2022-12-04T05:10:31.794Z,420.73
2022-12-04T05:13:33.378Z,409.77
2022-12-04T05:16:35.340Z,414.67
2022-12-04T05:19:56.812Z,403.73
2022-12-04T05:22:59.361Z,406.58
2022-12-04T05:26:05.140Z,396.50
